createdAt,value
2023-05-14T00:01:04.171Z,10.73
2023-05-14T00:03:31.347Z,11.05
2023-05-14T00:05:58.419Z,10.73
2023-05-14T00:08:25.339Z,10.85
2023-05-14T00:10:52.296Z,10.73
2023-05-14T00:13:19.097Z,10.82
2023-05-14T00:15:45.970Z,10.95
2023-05-14T00:18:12.812Z,10.70
2023-05-14T00:20:39.627Z,10.38
2023-05-14T00:23:06.437Z,10.82
2023-05-14T00:25:33.244Z,10.32
2023-05-14T00:28:00.078Z,10.77
2023-05-14T00:30:26.960Z,10.13
2023-05-14T00:32:53.809Z,9.73
2023-05-14T00:35:21.632Z,9.95
2023-05-14T00:37:48.483Z,9.98
2023-05-14T00:40:15.621Z,9.85
2023-05-14T00:42:42.472Z,9.77
2023-05-14T00:45:09.540Z,10.25
2023-05-14T00:47:36.581Z,10.13
2023-05-14T00:50:04.110Z,10.90
2023-05-14T00:52:31.474Z,11.43
2023-05-14T00:54:58.868Z,10.05
2023-05-14T00:57:25.803Z,10.07
2023-05-14T00:59:52.894Z,9.85
2023-05-14T01:02:19.736Z,10.57
2023-05-14T01:04:46.591Z,10.77
2023-05-14T01:07:25.626Z,10.38
2023-05-14T01:09:55.013Z,9.77
2023-05-14T01:12:45.779Z,10.02
2023-05-14T01:15:16.563Z,11.07
2023-05-14T01:17:46.258Z,10.45
2023-05-14T01:20:13.532Z,10.98
2023-05-14T01:22:40.384Z,10.35
2023-05-14T01:25:07.550Z,10.18
2023-05-14T01:27:43.586Z,9.90
2023-05-14T01:30:13.124Z,11.07
2023-05-14T01:32:40.644Z,10.30
2023-05-14T01:35:08.180Z,10.82
2023-05-14T01:37:35.766Z,10.93
2023-05-14T01:40:02.921Z,10.02
2023-05-14T01:42:30.078Z,10.45
2023-05-14T01:44:57.438Z,10.57
2023-05-14T01:47:24.516Z,9.85
2023-05-14T01:49:51.363Z,10.32
2023-05-14T01:52:21.025Z,10.55
2023-05-14T01:54:48.209Z,9.77
2023-05-14T01:57:15.026Z,10.40
2023-05-14T01:59:41.833Z,10.32
2023-05-14T02:02:08.740Z,10.35
2023-05-14T02:04:35.551Z,10.52
2023-05-14T02:07:02.340Z,10.52
2023-05-14T02:09:29.361Z,10.18
2023-05-14T02:11:56.237Z,10.98
2023-05-14T02:14:23.034Z,10.10
2023-05-14T02:16:51.417Z,10.25
2023-05-14T02:19:18.203Z,10.57
2023-05-14T02:21:45.021Z,10.68
2023-05-14T02:24:11.830Z,10.75
2023-05-14T02:26:38.618Z,10.10
2023-05-14T02:29:05.414Z,9.77
2023-05-14T02:31:32.227Z,10.20
2023-05-14T02:33:59.034Z,10.27
2023-05-14T02:36:25.825Z,9.85
2023-05-14T02:38:52.589Z,9.57
2023-05-14T02:41:19.434Z,10.55
2023-05-14T02:43:46.287Z,10.57
2023-05-14T02:46:13.267Z,9.90
2023-05-14T02:48:40.118Z,10.10
2023-05-14T02:51:07.691Z,10.70
2023-05-14T02:53:34.462Z,9.32
2023-05-14T02:56:01.279Z,10.00
2023-05-14T02:58:28.467Z,9.73
2023-05-14T03:00:55.716Z,9.35
2023-05-14T03:03:23.109Z,9.73
2023-05-14T03:05:50.793Z,9.35
2023-05-14T03:08:17.618Z,9.88
2023-05-14T03:10:44.411Z,9.82
2023-05-14T03:13:11.302Z,9.93
2023-05-14T03:15:38.094Z,10.05
2023-05-14T03:18:05.019Z,10.23
2023-05-14T03:20:31.867Z,9.40
2023-05-14T03:22:58.705Z,9.65
2023-05-14T03:25:25.524Z,10.02
2023-05-14T03:27:52.325Z,8.85
2023-05-14T03:30:19.290Z,9.30
2023-05-14T03:32:46.135Z,10.02
2023-05-14T03:35:12.958Z,9.20
2023-05-14T03:37:39.786Z,10.75
2023-05-14T03:40:07.076Z,9.82
2023-05-14T03:42:33.855Z,9.85
2023-05-14T03:45:00.713Z,9.73
2023-05-14T03:47:27.576Z,11.27
2023-05-14T03:49:54.457Z,10.40
2023-05-14T03:52:21.358Z,9.80
2023-05-14T03:54:48.177Z,10.35
2023-05-14T03:57:14.989Z,10.35
2023-05-14T03:59:41.790Z,10.27
2023-05-14T04:02:08.607Z,9.57
2023-05-14T04:04:35.465Z,10.57
2023-05-14T04:07:02.364Z,9.75
2023-05-14T04:09:29.158Z,9.32
2023-05-14T04:11:55.992Z,10.82
2023-05-14T04:14:25.143Z,9.63
2023-05-14T04:16:51.899Z,9.95
2023-05-14T04:19:19.353Z,9.80
2023-05-14T04:21:46.270Z,10.27
2023-05-14T04:24:13.041Z,10.15
2023-05-14T04:26:39.822Z,10.13
2023-05-14T04:29:06.640Z,10.13
2023-05-14T04:31:33.478Z,9.75
2023-05-14T04:34:00.526Z,10.57
2023-05-14T04:36:27.387Z,11.00
2023-05-14T04:38:54.175Z,9.98
2023-05-14T04:41:21.210Z,10.88
2023-05-14T04:43:49.870Z,9.52
2023-05-14T04:46:16.731Z,10.18
2023-05-14T04:48:43.654Z,10.65
2023-05-14T04:51:10.568Z,10.75
2023-05-14T04:53:37.354Z,10.32
2023-05-14T04:56:04.404Z,9.45
2023-05-14T04:58:34.609Z,9.90
2023-05-14T05:01:02.876Z,10.30
2023-05-14T05:03:29.819Z,9.57
2023-05-14T05:05:56.959Z,9.65
2023-05-14T05:08:23.796Z,10.35
2023-05-14T05:10:50.811Z,10.65
2023-05-14T05:13:17.622Z,10.05
2023-05-14T05:15:44.547Z,10.20
2023-05-14T05:18:11.545Z,9.50
2023-05-14T05:20:38.310Z,9.98
2023-05-14T05:23:05.140Z,10.32
2023-05-14T05:25:32.029Z,10.43
2023-05-14T05:27:58.803Z,11.18
2023-05-14T05:30:25.921Z,11.05
2023-05-14T05:32:53.030Z,10.52
2023-05-14T05:35:19.948Z,10.70
2023-05-14T05:37:46.781Z,9.68
2023-05-14T05:40:14.449Z,9.90
2023-05-14T05:42:41.650Z,10.73
2023-05-14T05:45:08.621Z,10.55
2023-05-14T05:47:35.558Z,11.45
2023-05-14T05:50:02.380Z,12.45
2023-05-14T05:52:29.247Z,11.32
2023-05-14T05:54:56.025Z,10.98
2023-05-14T05:57:25.688Z,11.23
2023-05-14T05:59:53.233Z,10.23
2023-05-14T06:02:20.408Z,11.45
2023-05-14T06:04:47.327Z,11.27
2023-05-14T06:07:14.117Z,10.73
2023-05-14T06:09:41.014Z,11.30
2023-05-14T06:12:07.955Z,11.77
2023-05-14T06:14:34.800Z,11.20
2023-05-14T06:17:01.794Z,11.93
2023-05-14T06:19:28.704Z,12.20
2023-05-14T06:21:56.059Z,11.10
2023-05-14T06:24:22.965Z,11.32
2023-05-14T06:26:49.766Z,11.60
2023-05-14T06:29:16.604Z,11.15
2023-05-14T06:31:43.606Z,11.85
2023-05-14T06:34:10.807Z,11.82
2023-05-14T06:36:37.703Z,11.05
2023-05-14T06:39:04.531Z,10.82
2023-05-14T06:41:31.328Z,11.65
2023-05-14T06:43:58.188Z,11.50
2023-05-14T06:46:25.008Z,10.77
2023-05-14T06:48:51.798Z,11.15
2023-05-14T06:51:18.665Z,10.75
2023-05-14T06:53:46.871Z,12.20
2023-05-14T06:56:14.736Z,11.27
2023-05-14T06:58:41.574Z,10.70
2023-05-14T07:01:08.542Z,11.75
2023-05-14T07:03:35.481Z,10.63
2023-05-14T07:06:02.283Z,10.85
2023-05-14T07:08:29.095Z,11.65
2023-05-14T07:10:57.412Z,10.60
2023-05-14T07:13:25.272Z,11.10
2023-05-14T07:15:55.613Z,11.32
2023-05-14T07:18:23.406Z,12.10
2023-05-14T07:20:50.196Z,11.23
2023-05-14T07:23:19.153Z,11.88
2023-05-14T07:25:46.667Z,11.32
2023-05-14T07:28:13.511Z,11.95
2023-05-14T07:30:40.356Z,11.15
2023-05-14T07:33:07.385Z,12.13
2023-05-14T07:35:34.402Z,11.23
2023-05-14T07:38:01.406Z,10.43
2023-05-14T07:40:28.175Z,11.93
2023-05-14T07:42:55.010Z,12.00
2023-05-14T07:45:21.890Z,11.80
2023-05-14T07:47:52.034Z,11.68
2023-05-14T07:50:19.585Z,12.02
2023-05-14T07:52:46.460Z,12.93
2023-05-14T07:55:13.446Z,13.00
2023-05-14T07:57:40.320Z,12.00
2023-05-14T08:00:10.258Z,11.10
2023-05-14T08:02:37.370Z,11.05
2023-05-14T08:05:04.661Z,10.82
2023-05-14T08:07:31.590Z,11.15
2023-05-14T08:09:58.416Z,11.85
2023-05-14T08:12:25.587Z,11.23
2023-05-14T08:14:52.411Z,11.23
2023-05-14T08:17:19.263Z,10.73
2023-05-14T08:19:46.928Z,10.93
2023-05-14T08:22:13.869Z,13.82
2023-05-14T08:24:40.683Z,11.60
2023-05-14T08:27:08.073Z,11.38
2023-05-14T08:29:34.875Z,11.98
2023-05-14T08:32:08.725Z,11.13
2023-05-14T08:34:46.462Z,10.55
2023-05-14T08:37:13.277Z,11.82
2023-05-14T08:39:40.196Z,12.18
2023-05-14T08:42:08.064Z,12.07
2023-05-14T08:44:58.365Z,11.93
2023-05-14T08:49:58.678Z,11.13
2023-05-14T08:52:25.790Z,10.70
2023-05-14T08:54:53.907Z,11.27
2023-05-14T08:57:21.404Z,11.00
2023-05-14T08:59:48.590Z,12.85
2023-05-14T09:02:17.393Z,12.00
2023-05-14T09:04:44.919Z,11.82
2023-05-14T09:07:12.086Z,12.15
2023-05-14T09:09:38.901Z,11.13
2023-05-14T09:12:06.172Z,11.48
2023-05-14T09:14:33.519Z,11.85
2023-05-14T09:17:00.554Z,10.82
2023-05-14T09:19:27.663Z,11.02
2023-05-14T09:21:56.427Z,11.52
2023-05-14T09:24:24.213Z,10.95
2023-05-14T09:26:52.926Z,11.40
2023-05-14T09:29:20.026Z,11.40
2023-05-14T09:31:49.936Z,11.98
2023-05-14T09:34:26.762Z,11.55
2023-05-14T09:36:59.547Z,11.60
2023-05-14T09:39:26.712Z,11.52
2023-05-14T09:41:54.271Z,11.00
2023-05-14T09:44:21.482Z,11.38
2023-05-14T09:46:48.811Z,11.25
2023-05-14T09:49:16.155Z,11.35
2023-05-14T09:51:43.082Z,11.73
2023-05-14T09:54:10.170Z,12.05
2023-05-14T09:56:37.421Z,11.23
2023-05-14T09:59:04.295Z,11.10
2023-05-14T10:01:32.952Z,12.18
2023-05-14T10:04:00.328Z,11.52
2023-05-14T10:06:28.572Z,10.23
2023-05-14T10:08:56.513Z,10.38
2023-05-14T10:11:28.704Z,10.60
2023-05-14T10:14:01.669Z,11.65
2023-05-14T10:16:31.966Z,10.82
2023-05-14T10:19:02.529Z,10.02
2023-05-14T10:21:31.535Z,10.50
2023-05-14T10:23:58.421Z,10.35
2023-05-14T10:26:25.444Z,11.18
2023-05-14T10:28:52.484Z,10.88
2023-05-14T10:31:22.963Z,10.63
2023-05-14T10:33:50.972Z,10.82
2023-05-14T10:36:18.690Z,11.77
2023-05-14T10:38:45.700Z,10.50
2023-05-14T10:41:15.047Z,11.13
2023-05-14T10:43:42.273Z,9.95
2023-05-14T10:46:10.570Z,10.15
2023-05-14T10:48:39.033Z,11.02
2023-05-14T10:51:07.174Z,9.43
2023-05-14T10:53:35.111Z,9.48
2023-05-14T10:56:11.417Z,10.10
2023-05-14T10:58:38.920Z,10.68
2023-05-14T11:01:06.695Z,9.98
2023-05-14T11:03:39.018Z,9.90
2023-05-14T11:06:06.307Z,9.90
2023-05-14T11:08:33.514Z,10.23
2023-05-14T11:11:00.805Z,9.15
2023-05-14T11:13:27.968Z,8.60
2023-05-14T11:15:55.630Z,7.95
2023-05-14T11:18:33.656Z,8.50
2023-05-14T11:21:01.349Z,8.07
2023-05-14T11:23:28.261Z,8.20
2023-05-14T11:25:56.201Z,8.10
2023-05-14T11:28:23.565Z,7.68
2023-05-14T11:30:50.999Z,7.85
2023-05-14T11:33:18.764Z,7.65
2023-05-14T11:35:46.554Z,8.00
2023-05-14T11:38:17.066Z,7.32
2023-05-14T11:40:52.043Z,7.50
2023-05-14T11:43:18.822Z,7.05
2023-05-14T11:45:49.622Z,7.30
2023-05-14T11:48:16.529Z,7.05
2023-05-14T11:50:50.116Z,7.55
2023-05-14T11:53:20.859Z,7.25
2023-05-14T11:55:47.893Z,7.20
2023-05-14T11:58:15.887Z,7.43
2023-05-14T12:00:44.680Z,7.32
2023-05-14T12:03:12.028Z,7.47
2023-05-14T12:05:39.416Z,7.15
2023-05-14T12:08:25.019Z,7.00
2023-05-14T12:10:53.048Z,6.53
2023-05-14T12:13:20.348Z,7.22
2023-05-14T12:15:57.806Z,6.68
2023-05-14T12:18:25.734Z,6.75
2023-05-14T12:20:52.556Z,6.88
2023-05-14T12:23:45.896Z,7.03
2023-05-14T12:26:12.723Z,6.45
2023-05-14T12:28:43.470Z,6.28
2023-05-14T12:31:10.859Z,6.63
2023-05-14T12:33:37.687Z,7.25
2023-05-14T12:36:20.715Z,7.18
2023-05-14T12:38:49.780Z,7.43
2023-05-14T12:41:17.733Z,6.65
2023-05-14T12:43:44.919Z,6.22
2023-05-14T12:46:11.788Z,6.05
2023-05-14T12:48:38.561Z,6.60
2023-05-14T12:51:05.568Z,7.30
2023-05-14T12:53:33.967Z,6.05
2023-05-14T12:56:00.866Z,6.05
2023-05-14T12:58:27.723Z,6.68
2023-05-14T13:00:54.843Z,6.15
2023-05-14T13:03:21.749Z,6.07
2023-05-14T13:05:48.686Z,6.95
2023-05-14T13:08:18.083Z,6.40
2023-05-14T13:10:44.961Z,5.65
2023-05-14T13:13:11.906Z,6.05
2023-05-14T13:15:38.716Z,5.57
2023-05-14T13:18:05.926Z,5.20
2023-05-14T13:20:33.589Z,5.05
2023-05-14T13:23:00.613Z,5.53
2023-05-14T13:25:27.850Z,4.93
2023-05-14T13:27:54.973Z,4.90
2023-05-14T13:30:21.794Z,4.80
2023-05-14T13:32:48.679Z,4.63
2023-05-14T13:35:15.504Z,4.90
2023-05-14T13:37:45.445Z,4.68
2023-05-14T13:40:12.428Z,5.03
2023-05-14T13:42:41.896Z,4.80
2023-05-14T13:45:09.013Z,4.65
2023-05-14T13:47:36.108Z,4.70
2023-05-14T13:50:02.985Z,4.75
2023-05-14T13:52:29.801Z,4.43
2023-05-14T13:54:56.876Z,4.25
2023-05-14T13:57:23.695Z,4.78
2023-05-14T13:59:50.494Z,4.93
2023-05-14T14:02:17.803Z,4.78
2023-05-14T14:04:44.712Z,4.65
2023-05-14T14:07:11.543Z,4.63
2023-05-14T14:09:38.345Z,4.28
2023-05-14T14:12:05.479Z,4.30
2023-05-14T14:14:32.322Z,8.27
2023-05-14T14:16:59.336Z,5.13
2023-05-14T14:19:26.184Z,4.80
2023-05-14T14:21:53.346Z,4.40
2023-05-14T14:24:20.398Z,4.60
2023-05-14T14:26:47.192Z,4.78
2023-05-14T14:29:14.082Z,4.70
2023-05-14T14:31:40.942Z,5.05
2023-05-14T14:34:07.795Z,4.75
2023-05-14T14:36:34.655Z,4.47
2023-05-14T14:39:01.448Z,4.88
2023-05-14T14:41:28.403Z,4.80
2023-05-14T14:43:55.281Z,4.30
2023-05-14T14:46:22.216Z,4.95
2023-05-14T14:48:49.069Z,4.97
2023-05-14T14:51:15.981Z,5.30
2023-05-14T14:53:42.794Z,4.60
2023-05-14T14:56:09.598Z,3.92
2023-05-14T14:58:36.713Z,3.67
2023-05-14T15:01:03.803Z,4.65
2023-05-14T15:03:31.455Z,4.18
2023-05-14T15:05:58.443Z,4.03
2023-05-14T15:08:27.534Z,4.43
2023-05-14T15:10:55.056Z,4.60
2023-05-14T15:13:21.994Z,4.72
2023-05-14T15:15:50.461Z,4.32
2023-05-14T15:18:17.322Z,4.70
2023-05-14T15:20:44.354Z,5.28
2023-05-14T15:23:11.708Z,4.57
2023-05-14T15:25:38.569Z,3.83
2023-05-14T15:28:08.235Z,4.30
2023-05-14T15:30:35.159Z,3.83
2023-05-14T15:33:02.083Z,3.92
2023-05-14T15:35:28.963Z,3.45
2023-05-14T15:37:59.305Z,3.67
2023-05-14T15:40:27.669Z,3.35
2023-05-14T15:42:54.706Z,3.85
2023-05-14T15:45:21.713Z,3.70
2023-05-14T15:47:48.703Z,3.60
2023-05-14T15:50:15.567Z,3.50
2023-05-14T15:52:42.452Z,3.47
2023-05-14T15:55:09.591Z,3.58
2023-05-14T15:57:36.403Z,4.05
2023-05-14T16:00:12.469Z,3.95
2023-05-14T16:02:39.731Z,3.58
2023-05-14T16:05:07.289Z,3.40
2023-05-14T16:07:34.409Z,3.97
2023-05-14T16:10:01.227Z,4.78
2023-05-14T16:12:28.166Z,3.30
2023-05-14T16:14:57.085Z,3.85
2023-05-14T16:17:23.949Z,4.50
2023-05-14T16:19:50.796Z,3.95
2023-05-14T16:22:17.638Z,3.65
2023-05-14T16:24:44.896Z,5.28
2023-05-14T16:27:11.892Z,4.40
2023-05-14T16:29:38.810Z,3.92
2023-05-14T16:32:05.835Z,4.22
2023-05-14T16:34:32.624Z,4.45
2023-05-14T16:36:59.596Z,4.00
2023-05-14T16:39:26.444Z,4.10
2023-05-14T16:41:53.272Z,4.25
2023-05-14T16:44:20.104Z,4.20
2023-05-14T16:46:46.988Z,4.22
2023-05-14T16:49:14.239Z,3.92
2023-05-14T16:51:43.226Z,3.85
2023-05-14T16:54:10.124Z,3.40
2023-05-14T16:56:37.077Z,3.22
2023-05-14T16:59:03.840Z,3.22
2023-05-14T17:01:31.295Z,3.35
2023-05-14T17:03:58.188Z,3.08
2023-05-14T17:06:25.101Z,3.03
2023-05-14T17:08:51.981Z,2.92
2023-05-14T17:11:18.835Z,4.00
2023-05-14T17:13:45.645Z,3.30
2023-05-14T17:16:12.617Z,3.33
2023-05-14T17:18:40.076Z,3.33
2023-05-14T17:21:07.602Z,3.10
2023-05-14T17:23:34.515Z,3.03
2023-05-14T17:26:01.266Z,3.38
2023-05-14T17:28:29.940Z,3.22
2023-05-14T17:30:57.319Z,3.25
2023-05-14T17:33:24.229Z,3.42
2023-05-14T17:35:51.148Z,3.40
2023-05-14T17:38:18.001Z,3.40
2023-05-14T17:40:45.105Z,3.55
2023-05-14T17:43:12.077Z,3.75
2023-05-14T17:45:52.488Z,3.65
2023-05-14T17:48:20.946Z,3.70
2023-05-14T17:50:47.921Z,3.90
2023-05-14T17:53:14.817Z,4.05
2023-05-14T17:55:43.773Z,3.50
2023-05-14T17:58:11.628Z,3.85
2023-05-14T18:00:38.556Z,3.72
2023-05-14T18:03:05.461Z,3.45
2023-05-14T18:05:32.509Z,3.55
2023-05-14T18:07:59.906Z,3.35
2023-05-14T18:10:26.951Z,2.63
2023-05-14T18:12:53.731Z,3.10
2023-05-14T18:15:20.687Z,3.03
2023-05-14T18:17:47.594Z,3.10
2023-05-14T18:20:14.378Z,3.40
2023-05-14T18:22:41.358Z,2.83
2023-05-14T18:25:09.590Z,3.15
2023-05-14T18:27:39.535Z,2.95
2023-05-14T18:30:07.508Z,2.78
2023-05-14T18:32:34.291Z,2.72
2023-05-14T18:35:01.136Z,2.42
2023-05-14T18:37:27.980Z,2.47
2023-05-14T18:39:54.885Z,2.25
2023-05-14T18:42:21.858Z,2.10
2023-05-14T18:44:48.638Z,2.40
2023-05-14T18:47:15.567Z,1.90
2023-05-14T18:49:42.560Z,2.10
2023-05-14T18:52:09.368Z,2.15
2023-05-14T18:54:36.183Z,1.70
2023-05-14T18:57:03.001Z,1.70
2023-05-14T18:59:29.889Z,1.67
2023-05-14T19:01:56.855Z,1.65
2023-05-14T19:04:23.800Z,2.10
2023-05-14T19:06:50.982Z,1.80
2023-05-14T19:09:21.160Z,1.70
2023-05-14T19:11:48.337Z,1.67
2023-05-14T19:14:15.168Z,1.63
2023-05-14T19:16:42.112Z,1.60
2023-05-14T19:19:09.038Z,1.70
2023-05-14T19:21:36.165Z,1.70
2023-05-14T19:24:03.087Z,1.75
2023-05-14T19:26:29.903Z,1.55
2023-05-14T19:28:58.669Z,1.48
2023-05-14T19:31:25.912Z,1.40
2023-05-14T19:33:53.393Z,1.65
2023-05-14T19:36:20.851Z,1.50
2023-05-14T19:38:47.957Z,1.40
2023-05-14T19:41:14.785Z,1.90
2023-05-14T19:43:41.823Z,1.40
2023-05-14T19:46:08.746Z,1.50
2023-05-14T19:48:35.625Z,1.52
2023-05-14T19:51:02.449Z,1.40
2023-05-14T19:53:32.151Z,1.52
2023-05-14T19:55:59.532Z,1.48
2023-05-14T19:58:26.585Z,1.48
2023-05-14T20:00:54.399Z,1.40
2023-05-14T20:03:25.493Z,1.30
2023-05-14T20:05:53.322Z,1.33
2023-05-14T20:08:20.786Z,1.30
2023-05-14T20:10:48.014Z,1.13
2023-05-14T20:13:15.020Z,1.42
2023-05-14T20:15:42.696Z,1.25
2023-05-14T20:18:09.764Z,1.25
2023-05-14T20:20:36.808Z,1.20
2023-05-14T20:23:03.662Z,1.30
2023-05-14T20:25:32.764Z,1.30
2023-05-14T20:28:02.449Z,1.38
2023-05-14T20:30:29.335Z,1.20
2023-05-14T20:32:56.416Z,1.40
2023-05-14T20:35:23.618Z,1.35
2023-05-14T20:37:50.622Z,1.13
2023-05-14T20:40:17.734Z,1.10
2023-05-14T20:42:44.586Z,1.08
2023-05-14T20:45:11.466Z,1.17
2023-05-14T20:47:38.430Z,1.10
2023-05-14T20:50:05.755Z,0.93
2023-05-14T20:52:32.618Z,1.02
2023-05-14T20:55:01.508Z,1.02
2023-05-14T20:57:29.045Z,1.08
2023-05-14T20:59:58.184Z,0.90
2023-05-14T21:02:25.177Z,0.82
2023-05-14T21:04:52.341Z,0.90
2023-05-14T21:07:19.171Z,1.00
2023-05-14T21:09:50.843Z,0.80
2023-05-14T21:12:18.258Z,0.88
2023-05-14T21:14:45.044Z,1.10
2023-05-14T21:17:11.935Z,1.00
2023-05-14T21:19:38.846Z,0.85
2023-05-14T21:22:06.190Z,1.00
2023-05-14T21:24:33.011Z,1.15
2023-05-14T21:26:59.767Z,1.10
2023-05-14T21:29:26.675Z,1.30
2023-05-14T21:31:53.555Z,1.58
2023-05-14T21:34:20.492Z,1.50
2023-05-14T21:36:47.516Z,1.40
2023-05-14T21:39:14.295Z,1.38
2023-05-14T21:41:41.416Z,1.30
2023-05-14T21:44:08.219Z,1.25
2023-05-14T21:46:35.053Z,1.20
2023-05-14T21:49:01.863Z,1.30
2023-05-14T21:51:28.880Z,1.33
2023-05-14T21:53:55.785Z,1.20
2023-05-14T21:56:22.590Z,1.13
2023-05-14T21:58:49.523Z,1.10
2023-05-14T22:01:16.330Z,1.42
2023-05-14T22:03:43.443Z,1.20
2023-05-14T22:06:10.292Z,1.00
2023-05-14T22:08:37.057Z,1.10
2023-05-14T22:11:04.003Z,1.17
2023-05-14T22:13:30.791Z,1.20
2023-05-14T22:16:11.646Z,1.20
2023-05-14T22:18:39.996Z,1.40
2023-05-14T22:21:06.874Z,1.10
2023-05-14T22:23:33.815Z,1.23
2023-05-14T22:26:00.632Z,1.30
2023-05-14T22:28:27.418Z,1.40
2023-05-14T22:30:54.401Z,1.40
2023-05-14T22:33:21.285Z,1.35
2023-05-14T22:35:48.114Z,1.58
2023-05-14T22:38:14.880Z,1.48
2023-05-14T22:40:41.624Z,1.50
2023-05-14T22:43:08.411Z,1.80
2023-05-14T22:45:35.170Z,1.60
2023-05-14T22:48:02.382Z,1.85
2023-05-14T22:50:29.246Z,1.60
2023-05-14T22:52:56.015Z,1.40
2023-05-14T22:55:23.121Z,1.80
2023-05-14T22:57:50.155Z,1.88
2023-05-14T23:00:17.119Z,1.73
2023-05-14T23:02:43.990Z,1.80
2023-05-14T23:05:10.797Z,1.88
2023-05-14T23:07:37.600Z,2.08
2023-05-14T23:10:04.665Z,2.00
2023-05-14T23:12:31.563Z,2.13
2023-05-14T23:14:59.257Z,2.10
2023-05-14T23:17:26.310Z,2.25
2023-05-14T23:19:53.445Z,1.90
2023-05-14T23:22:20.378Z,1.92
2023-05-14T23:24:47.188Z,2.13
2023-05-14T23:27:13.977Z,2.20
2023-05-14T23:29:40.819Z,2.13
2023-05-14T23:32:08.389Z,2.45
2023-05-14T23:34:35.527Z,2.20
2023-05-14T23:37:02.354Z,2.42
2023-05-14T23:39:29.257Z,2.20
2023-05-14T23:41:56.048Z,2.00
2023-05-14T23:44:22.820Z,2.10
2023-05-14T23:46:49.680Z,2.53
2023-05-14T23:49:16.614Z,2.25
2023-05-14T23:51:43.415Z,2.45
2023-05-14T23:54:10.248Z,2.50
2023-05-14T23:56:37.152Z,2.60
2023-05-14T23:59:03.950Z,2.40
